Time;durP1;ratioP1;P1;durP2;ratioP2;P2;SDS_P1;SDS_P2;PMS_P1;PMS_P2;Temp;Humidity;BMP_temperature;BMP_pressure;BME280_temperature;BME280_humidity;BME280_pressure;Samples;Min_cycle;Max_cycle;Signal;HPM_P1;HPM_P2
2021/12/04 00:01:56;;;;;;;15.10;13.57;;;;;;;3.23;81.14;99668.38;5059602;28;20243;-76
2021/12/04 00:04:26;;;;;;;5.50;5.10;;;;;;;3.06;81.32;99666.69;5063178;28;20614;-76
2021/12/04 00:06:52;;;;;;;7.80;4.83;;;;;;;3.09;81.66;99656.38;5058186;28;20208;-76
2021/12/04 00:09:21;;;;;;;4.57;4.13;;;;;;;3.09;81.29;99655.50;5050995;28;20662;-76
2021/12/04 00:11:54;;;;;;;6.60;6.00;;;;;;;3.13;81.67;99652.94;5050910;28;20209;-76
2021/12/04 00:14:21;;;;;;;4.13;3.70;;;;;;;3.05;81.34;99644.31;5051416;28;20275;-76
2021/12/04 00:16:47;;;;;;;6.67;4.20;;;;;;;3.13;81.94;99632.31;5051213;28;20722;-75
2021/12/04 00:19:13;;;;;;;4.40;4.00;;;;;;;3.20;81.52;99632.28;5050956;28;20609;-77
2021/12/04 00:21:42;;;;;;;4.70;4.33;;;;;;;3.11;80.45;99666.66;5050856;28;20217;-76
2021/12/04 00:24:09;;;;;;;4.87;4.37;;;;;;;3.12;80.92;99651.19;5051025;28;20861;-76
2021/12/04 00:26:38;;;;;;;3.73;3.43;;;;;;;3.16;81.18;99662.38;5060101;28;20727;-76
2021/12/04 00:29:04;;;;;;;4.50;4.20;;;;;;;3.16;81.28;99645.16;5059645;28;20199;-75
2021/12/04 00:31:32;;;;;;;4.57;4.17;;;;;;;3.04;80.57;99649.50;5061982;28;20256;-76
2021/12/04 00:33:59;;;;;;;4.97;4.63;;;;;;;3.13;80.93;99646.88;5059927;28;20194;-77
2021/12/04 00:36:32;;;;;;;5.20;4.70;;;;;;;3.17;81.36;99633.13;5062452;28;20952;-77
2021/12/04 00:49:58;;;;;;;4.73;4.33;;;;;;;2.89;81.92;99606.53;5062497;28;20200;-76
2021/12/04 00:52:25;;;;;;;4.40;4.00;;;;;;;2.95;82.50;99586.78;5064019;28;20247;-76
2021/12/04 00:54:51;;;;;;;4.30;3.80;;;;;;;2.91;82.15;99589.34;5063973;28;20201;-76
2021/12/04 00:57:19;;;;;;;9.87;8.90;;;;;;;2.98;82.68;99570.44;5064365;28;20254;-76
2021/12/04 00:59:46;;;;;;;6.87;6.07;;;;;;;3.09;82.28;99579.03;5059899;28;20209;-76
2021/12/04 01:02:12;;;;;;;4.80;4.07;;;;;;;3.03;82.00;99579.00;5060363;28;20270;-76
2021/12/04 01:04:39;;;;;;;4.03;3.73;;;;;;;3.01;82.06;99592.78;5059487;28;20202;-76
2021/12/04 01:07:06;;;;;;;5.87;4.87;;;;;;;3.07;81.64;99590.19;5062885;28;20193;-76
2021/12/04 01:09:33;;;;;;;7.00;6.07;;;;;;;3.13;82.20;99585.88;5062707;28;20202;-76
2021/12/04 01:11:59;;;;;;;6.60;5.70;;;;;;;3.22;82.56;99566.09;5060107;28;20217;-76
2021/12/04 01:14:28;;;;;;;19.40;11.87;;;;;;;3.31;81.79;99574.66;5063417;28;20198;-76
2021/12/04 01:16:55;;;;;;;28.70;15.27;;;;;;;3.29;81.67;99593.56;5061030;28;20689;-76
2021/12/04 01:19:22;;;;;;;5.70;5.20;;;;;;;3.20;81.88;99588.44;5065342;28;20193;-76
2021/12/04 01:21:50;;;;;;;10.00;7.30;;;;;;;3.25;82.26;99574.69;5062378;28;20225;-76
2021/12/04 01:24:17;;;;;;;4.80;4.40;;;;;;;3.15;82.46;99567.81;5062634;28;20201;-76
2021/12/04 01:26:44;;;;;;;10.63;9.47;;;;;;;3.17;82.67;99559.22;5065176;28;20646;-76
2021/12/04 01:29:10;;;;;;;4.77;4.27;;;;;;;3.10;82.52;99554.94;5066872;28;20275;-76
2021/12/04 01:31:38;;;;;;;6.17;5.57;;;;;;;3.09;83.02;99542.94;5067790;28;20222;-77
2021/12/04 01:34:05;;;;;;;5.80;5.30;;;;;;;3.10;82.95;99528.31;5054262;28;20255;-76
2021/12/04 01:36:31;;;;;;;4.60;4.20;;;;;;;2.97;83.32;99524.91;5053942;28;20671;-76
2021/12/04 01:38:57;;;;;;;5.87;5.40;;;;;;;3.09;83.18;99518.84;5053894;28;20644;-76
2021/12/04 01:41:24;;;;;;;4.47;4.17;;;;;;;3.08;83.03;99506.84;5053734;28;20199;-76
2021/12/04 01:43:50;;;;;;;4.93;4.43;;;;;;;3.06;82.75;99516.28;5053826;28;20581;-76
2021/12/04 01:46:17;;;;;;;5.53;5.03;;;;;;;3.01;83.33;99498.25;5053989;28;20241;-76
2021/12/04 01:48:45;;;;;;;5.90;5.33;;;;;;;3.00;83.39;99486.22;5053787;28;20248;-76
2021/12/04 01:51:11;;;;;;;5.50;5.10;;;;;;;3.07;83.84;99481.91;5053947;28;20193;-76
2021/12/04 01:53:38;;;;;;;5.20;4.77;;;;;;;2.94;83.92;99458.75;5053868;28;20221;-76
2021/12/04 01:56:05;;;;;;;4.60;4.20;;;;;;;3.02;84.03;99451.00;5059950;28;20206;-76
2021/12/04 01:58:31;;;;;;;5.23;4.73;;;;;;;2.93;84.21;99448.44;5065696;28;20248;-76
2021/12/04 02:01:00;;;;;;;5.90;5.40;;;;;;;2.93;84.83;99439.00;5062053;28;20200;-76
2021/12/04 02:03:26;;;;;;;4.90;4.50;;;;;;;3.00;84.70;99434.69;5063507;28;20225;-76
2021/12/04 02:05:54;;;;;;;5.33;4.80;;;;;;;2.95;85.00;99433.81;5061668;28;20249;-76
2021/12/04 02:08:24;;;;;;;4.83;4.43;;;;;;;2.99;84.61;99420.06;5062153;28;20197;-76
2021/12/04 02:11:00;;;;;;;5.30;4.80;;;;;;;2.94;84.96;99411.50;5063348;28;20197;-76
2021/12/04 02:13:26;;;;;;;6.17;4.87;;;;;;;2.89;85.08;99400.34;5064173;28;20228;-76
2021/12/04 02:15:53;;;;;;;5.30;4.80;;;;;;;2.76;86.21;99381.53;5067478;28;20250;-76
2021/12/04 02:18:22;;;;;;;5.80;5.30;;;;;;;2.80;85.83;99372.91;5073344;28;20292;-76
2021/12/04 02:20:50;;;;;;;4.73;4.43;;;;;;;2.94;85.76;99381.44;5073431;28;20608;-76
2021/12/04 02:23:17;;;;;;;5.37;4.97;;;;;;;3.02;85.07;99398.59;5073372;28;20228;-76
2021/12/04 02:25:44;;;;;;;5.43;5.03;;;;;;;2.98;85.33;99400.31;5072265;28;20209;-77
2021/12/04 02:28:12;;;;;;;6.17;5.67;;;;;;;3.08;85.19;99401.13;5073537;28;20204;-76
2021/12/04 02:30:42;;;;;;;5.43;5.03;;;;;;;3.12;84.70;99411.41;5073446;28;20297;-76
2021/12/04 02:33:12;;;;;;;5.33;5.00;;;;;;;3.19;84.64;99414.78;5073032;28;20280;-76
2021/12/04 02:35:39;;;;;;;5.27;4.87;;;;;;;3.20;84.71;99415.69;5073497;28;20243;-76
2021/12/04 02:38:07;;;;;;;5.70;5.30;;;;;;;3.23;84.22;99418.22;5073332;28;20233;-76
2021/12/04 02:40:33;;;;;;;4.73;4.33;;;;;;;3.30;84.35;99422.50;5073222;28;20200;-76
2021/12/04 02:43:00;;;;;;;5.27;4.80;;;;;;;3.25;83.85;99432.84;5072805;28;20229;-76
2021/12/04 02:45:26;;;;;;;4.83;4.53;;;;;;;3.01;83.47;99436.38;5073050;28;20201;-77
2021/12/04 02:47:53;;;;;;;5.23;4.87;;;;;;;3.08;84.37;99416.59;5072870;28;20249;-76
2021/12/04 02:50:19;;;;;;;5.17;4.77;;;;;;;3.04;84.46;99414.91;5073114;28;20204;-76
2021/12/04 02:52:46;;;;;;;5.87;5.20;;;;;;;3.03;84.16;99408.00;5072918;28;20224;-76
2021/12/04 02:55:16;;;;;;;4.77;4.47;;;;;;;2.90;85.14;99407.22;5069290;28;20210;-76
2021/12/04 02:57:44;;;;;;;5.17;4.77;;;;;;;2.96;85.03;99402.03;5067415;28;20284;-76
2021/12/04 03:00:16;;;;;;;5.20;4.80;;;;;;;2.97;84.80;99398.59;5072520;28;20689;-76
2021/12/04 03:02:42;;;;;;;5.70;5.20;;;;;;;2.99;85.25;99394.28;5072586;28;20236;-76
2021/12/04 03:05:09;;;;;;;5.63;5.23;;;;;;;2.92;85.16;99375.44;5072864;28;20258;-76
2021/12/04 03:07:36;;;;;;;5.73;5.23;;;;;;;2.98;84.99;99369.38;5072461;28;20201;-76
2021/12/04 03:10:06;;;;;;;5.47;4.97;;;;;;;2.96;85.37;99371.97;5072678;28;20220;-76
2021/12/04 03:12:34;;;;;;;5.53;5.13;;;;;;;3.03;85.13;99369.34;5072208;28;20249;-76
2021/12/04 03:15:00;;;;;;;5.80;5.30;;;;;;;3.04;85.21;99371.94;5072668;28;20209;-76
2021/12/04 03:17:27;;;;;;;5.33;4.93;;;;;;;3.06;84.66;99370.19;5072410;28;20209;-76
2021/12/04 03:19:54;;;;;;;5.40;4.90;;;;;;;3.03;84.60;99366.78;5072432;28;20254;-76
2021/12/04 03:22:22;;;;;;;5.90;5.40;;;;;;;3.09;84.68;99359.00;5072110;28;20318;-77
2021/12/04 03:24:49;;;;;;;5.20;4.80;;;;;;;3.13;84.70;99360.69;5072652;28;20208;-77
2021/12/04 03:27:17;;;;;;;5.30;4.90;;;;;;;3.14;84.24;99359.84;5071013;28;20202;-76
2021/12/04 03:29:49;;;;;;;4.90;4.53;;;;;;;3.24;84.10;99353.75;5071974;28;20813;-77
2021/12/04 03:32:37;;;;;;;5.10;4.67;;;;;;;3.30;84.20;99355.44;5072126;28;20278;-76
2021/12/04 03:35:26;;;;;;;5.20;4.67;;;;;;;3.32;83.95;99371.75;5072487;28;20192;-76
2021/12/04 03:40:51;;;;;;;5.07;4.67;;;;;;;3.14;84.27;99363.25;5072209;28;20212;-76
2021/12/04 03:43:17;;;;;;;5.20;4.80;;;;;;;3.15;84.77;99336.63;5072149;28;20258;-76
2021/12/04 03:45:49;;;;;;;4.73;4.43;;;;;;;3.17;84.63;99339.19;5072192;28;20209;-76
2021/12/04 03:48:38;;;;;;;4.80;4.40;;;;;;;3.18;84.20;99344.34;5071920;28;20219;-77
2021/12/04 03:51:07;;;;;;;6.30;5.60;;;;;;;3.03;84.64;99344.41;5071777;28;20209;-76
2021/12/04 03:53:33;;;;;;;5.17;4.87;;;;;;;3.13;84.41;99322.00;5071796;28;20225;-76
2021/12/04 03:56:00;;;;;;;5.70;5.30;;;;;;;3.20;84.61;99318.53;5070511;28;20236;-76
2021/12/04 03:58:26;;;;;;;4.93;4.60;;;;;;;3.26;84.39;99336.53;5071687;28;20670;-76
2021/12/04 04:00:54;;;;;;;5.20;4.80;;;;;;;3.30;84.70;99333.06;5072019;28;20230;-76
2021/12/04 04:03:21;;;;;;;5.20;4.80;;;;;;;3.30;84.29;99345.13;5071684;28;20270;-76
2021/12/04 04:05:48;;;;;;;4.57;4.27;;;;;;;3.35;84.18;99339.06;5071859;28;20639;-76
2021/12/04 04:08:16;;;;;;;4.40;4.10;;;;;;;3.28;83.98;99352.84;5071947;28;20200;-77
2021/12/04 04:10:43;;;;;;;4.53;4.17;;;;;;;3.38;83.55;99344.19;5071769;28;20715;-76
2021/12/04 04:13:12;;;;;;;5.03;4.63;;;;;;;3.43;83.65;99335.56;5071293;28;20229;-76
2021/12/04 04:15:38;;;;;;;5.03;4.63;;;;;;;3.46;84.04;99336.38;5072050;28;20721;-77
2021/12/04 04:18:06;;;;;;;4.47;4.17;;;;;;;3.47;83.92;99338.13;5072037;28;20209;-76
2021/12/04 04:20:33;;;;;;;4.13;3.83;;;;;;;3.44;83.92;99343.28;5072014;28;20298;-76
2021/12/04 04:22:59;;;;;;;4.53;4.23;;;;;;;3.44;83.72;99329.53;5071272;28;20787;-76
2021/12/04 04:25:26;;;;;;;4.73;4.40;;;;;;;3.46;83.59;99326.06;5066443;28;20628;-76
2021/12/04 04:27:52;;;;;;;4.60;4.20;;;;;;;3.51;83.58;99316.59;5067285;28;20201;-76
2021/12/04 04:30:20;;;;;;;4.33;3.97;;;;;;;3.52;83.77;99322.59;5071819;28;20258;-76
2021/12/04 04:32:49;;;;;;;4.40;4.10;;;;;;;3.52;83.41;99320.84;5071534;28;20578;-76
2021/12/04 04:35:19;;;;;;;4.30;4.00;;;;;;;3.49;83.64;99325.19;5071574;28;20209;-76
2021/12/04 04:37:52;;;;;;;5.50;4.37;;;;;;;3.22;83.73;99318.53;5071628;28;20201;-76
2021/12/04 04:57:24;;;;;;;4.97;4.57;;;;;;;3.27;84.27;99312.47;5071188;28;20397;-76
2021/12/04 05:02:33;;;;;;;4.43;4.03;;;;;;;3.44;84.16;99302.00;5041599;28;20233;-75
2021/12/04 05:13:17;;;;;;;5.03;4.63;;;;;;;3.08;85.69;99224.09;5054706;28;20225;-76
2021/12/04 05:15:55;;;;;;;4.37;4.07;;;;;;;3.16;85.52;99211.97;5054679;28;20205;-76
2021/12/04 05:18:31;;;;;;;5.00;4.60;;;;;;;3.19;85.99;99218.84;5055029;28;20212;-76
2021/12/04 05:21:04;;;;;;;4.73;4.33;;;;;;;3.23;86.07;99229.97;5054696;28;20671;-76
2021/12/04 05:23:33;;;;;;;5.50;5.10;;;;;;;3.26;85.54;99224.81;5054351;28;20279;-75
2021/12/04 05:26:00;;;;;;;4.50;4.20;;;;;;;3.30;85.61;99237.66;5064149;28;20212;-75
2021/12/04 05:28:27;;;;;;;4.70;4.30;;;;;;;3.28;85.85;99247.13;5074703;28;20204;-75
2021/12/04 05:30:53;;;;;;;5.33;4.93;;;;;;;3.31;85.46;99238.50;5074660;28;20208;-76
2021/12/04 05:33:19;;;;;;;4.93;4.50;;;;;;;3.29;85.75;99224.75;5073969;28;20727;-76
2021/12/04 05:35:48;;;;;;;5.33;4.90;;;;;;;3.27;85.53;99224.81;5074735;28;20274;-75
2021/12/04 05:38:14;;;;;;;5.53;5.07;;;;;;;3.33;85.87;99224.75;5074640;28;20387;-76
2021/12/04 05:40:42;;;;;;;5.10;4.70;;;;;;;3.36;85.57;99224.69;5074276;28;20670;-76
2021/12/04 05:43:09;;;;;;;5.00;4.60;;;;;;;3.38;85.81;99214.38;5073905;28;20228;-76
2021/12/04 05:45:39;;;;;;;5.03;4.63;;;;;;;3.40;85.84;99224.69;5074266;28;20205;-76
2021/12/04 05:48:10;;;;;;;5.80;5.40;;;;;;;3.42;85.26;99223.78;5074337;28;20209;-76
2021/12/04 05:50:54;;;;;;;5.63;5.23;;;;;;;3.35;85.18;99235.03;5074201;28;20705;-76
2021/12/04 05:53:23;;;;;;;5.40;4.90;;;;;;;3.21;84.87;99258.38;5073453;28;20220;-76
2021/12/04 05:55:55;;;;;;;5.30;4.90;;;;;;;3.27;85.40;99253.16;5069453;28;20311;-76
2021/12/04 05:58:23;;;;;;;5.40;5.00;;;;;;;3.33;85.41;99241.91;5073228;28;20784;-76
2021/12/04 06:00:51;;;;;;;5.20;4.80;;;;;;;3.35;85.34;99243.63;5073992;28;20217;-76
2021/12/04 06:03:17;;;;;;;5.73;5.30;;;;;;;3.40;85.21;99256.47;5073589;28;20247;-76
2021/12/04 06:05:44;;;;;;;5.60;5.10;;;;;;;3.37;85.95;99234.16;5073919;28;20208;-76
2021/12/04 06:08:11;;;;;;;5.37;4.97;;;;;;;3.40;85.59;99233.28;5073800;28;20666;-76
2021/12/04 06:10:37;;;;;;;5.53;5.13;;;;;;;3.38;85.10;99245.31;5073777;28;20211;-76
2021/12/04 06:13:05;;;;;;;5.73;5.33;;;;;;;3.43;85.16;99253.00;5073841;28;20221;-76
2021/12/04 06:15:32;;;;;;;6.23;5.73;;;;;;;3.45;85.18;99256.44;5073630;28;20260;-76
2021/12/04 06:17:58;;;;;;;5.90;5.50;;;;;;;3.45;85.36;99261.59;5073965;28;20257;-76
2021/12/04 06:23:10;;;;;;;5.70;5.30;;;;;;;3.36;85.16;99265.97;5073364;28;20596;-75
2021/12/04 06:25:36;;;;;;;6.50;6.00;;;;;;;3.36;85.06;99265.97;5071881;28;20258;-75
2021/12/04 06:28:05;;;;;;;5.53;5.13;;;;;;;3.39;85.50;99270.25;5070268;28;20193;-76
2021/12/04 06:30:35;;;;;;;6.40;5.90;;;;;;;3.42;85.40;99253.91;5073467;28;20747;-76
2021/12/04 06:33:03;;;;;;;6.60;6.10;;;;;;;3.39;85.42;99257.38;5073159;28;20282;-76
2021/12/04 06:38:25;;;;;;;6.77;6.20;;;;;;;3.37;85.64;99265.13;5003460;28;20226;-76
2021/12/04 06:40:51;;;;;;;6.33;5.87;;;;;;;3.44;84.67;99283.97;4993225;28;20281;-77
2021/12/04 06:43:19;;;;;;;6.67;6.17;;;;;;;3.37;84.97;99282.31;4993143;28;20227;-78
2021/12/04 06:45:53;;;;;;;6.27;5.77;;;;;;;3.40;85.39;99276.28;4993456;28;20208;-77
2021/12/04 06:48:22;;;;;;;6.07;5.67;;;;;;;3.41;84.79;99276.25;4993485;28;20211;-77
2021/12/04 06:50:50;;;;;;;6.70;6.20;;;;;;;3.37;84.86;99279.75;4993041;28;20883;-77
2021/12/04 06:53:24;;;;;;;6.53;6.03;;;;;;;3.40;84.68;99290.00;4993142;28;20203;-75
2021/12/04 06:55:53;;;;;;;6.30;5.80;;;;;;;3.36;84.72;99280.59;4996891;28;20246;-76
2021/12/04 06:58:22;;;;;;;6.37;5.93;;;;;;;3.19;84.83;99280.72;5012564;28;20203;-77
2021/12/04 07:00:49;;;;;;;7.53;6.93;;;;;;;3.23;85.34;99259.22;5012516;28;20210;-78
2021/12/04 07:03:16;;;;;;;6.53;6.03;;;;;;;3.30;85.44;99262.59;5012921;28;20691;-77
2021/12/04 07:05:42;;;;;;;7.73;7.13;;;;;;;3.31;85.86;99259.13;5012229;28;20215;-78
2021/12/04 07:08:08;;;;;;;7.60;7.00;;;;;;;3.31;85.39;99260.00;5012846;28;20584;-77
2021/12/04 07:10:35;;;;;;;7.50;6.90;;;;;;;3.34;85.86;99251.38;5012754;28;20624;-77
2021/12/04 07:13:02;;;;;;;6.93;6.43;;;;;;;3.38;85.67;99253.91;5012038;28;20214;-77
2021/12/04 07:15:30;;;;;;;7.63;7.03;;;;;;;3.42;85.49;99253.91;5012475;28;20259;-77
2021/12/04 07:17:58;;;;;;;7.97;7.27;;;;;;;3.40;85.25;99260.78;5012131;28;20231;-76
2021/12/04 07:20:24;;;;;;;7.00;6.50;;;;;;;3.43;84.97;99268.50;5012504;28;20207;-77
2021/12/04 07:22:50;;;;;;;7.23;6.63;;;;;;;3.39;85.53;99262.53;5012159;28;20211;-77
2021/12/04 07:25:17;;;;;;;7.83;7.23;;;;;;;3.37;85.82;99249.63;5012041;28;20231;-78
2021/12/04 07:27:45;;;;;;;7.33;6.73;;;;;;;3.31;85.33;99252.28;5011970;28;20598;-77
2021/12/04 07:30:12;;;;;;;7.50;6.90;;;;;;;3.33;86.37;99237.63;5012139;28;20274;-78
2021/12/04 07:32:40;;;;;;;7.57;6.93;;;;;;;3.36;86.25;99240.16;5011837;28;20293;-78
2021/12/04 07:35:08;;;;;;;7.63;6.97;;;;;;;3.36;86.10;99235.00;5012323;28;20210;-78
2021/12/04 07:37:35;;;;;;;7.23;6.73;;;;;;;3.18;86.21;99236.03;5012029;28;20234;-77
2021/12/04 07:40:01;;;;;;;7.70;7.10;;;;;;;3.37;86.93;99223.00;5011998;28;20234;-79
2021/12/04 07:42:28;;;;;;;7.17;6.67;;;;;;;3.40;86.61;99215.22;5011953;28;20245;-78
2021/12/04 07:44:54;;;;;;;6.67;6.27;;;;;;;3.38;86.09;99230.69;5011921;28;20284;-76
2021/12/04 07:47:20;;;;;;;6.83;6.33;;;;;;;3.36;86.47;99227.28;5012154;28;20223;-79
2021/12/04 07:49:48;;;;;;;7.37;6.87;;;;;;;3.40;86.86;99216.94;5012236;28;20631;-78
2021/12/04 07:52:14;;;;;;;7.47;6.87;;;;;;;3.47;86.46;99224.63;5011822;28;20202;-78
2021/12/04 07:54:42;;;;;;;7.90;7.30;;;;;;;3.48;86.63;99226.31;5011788;28;20628;-78
2021/12/04 07:57:08;;;;;;;7.20;6.60;;;;;;;3.54;86.43;99215.91;5011665;28;20227;-77
2021/12/04 07:59:34;;;;;;;8.00;7.30;;;;;;;3.62;86.46;99213.28;5011573;28;20202;-77
2021/12/04 08:02:01;;;;;;;7.33;6.70;;;;;;;3.64;86.72;99221.84;5011677;28;20233;-76
2021/12/04 08:04:28;;;;;;;6.10;5.70;;;;;;;3.54;86.15;99222.81;5011707;28;20230;-77
2021/12/04 08:06:55;;;;;;;6.43;5.93;;;;;;;3.49;86.37;99222.00;5011846;28;20228;-78
2021/12/04 08:09:22;;;;;;;7.00;6.50;;;;;;;3.51;87.06;99199.66;5011815;28;20206;-78
2021/12/04 08:11:50;;;;;;;6.47;5.90;;;;;;;3.44;87.87;99180.78;5011390;28;20213;-78
2021/12/04 08:14:16;;;;;;;6.50;6.00;;;;;;;3.50;87.57;99175.53;5011950;28;20241;-76
2021/12/04 08:16:43;;;;;;;6.60;6.10;;;;;;;3.55;87.53;99175.53;5014371;28;20223;-79
2021/12/04 08:19:09;;;;;;;5.77;5.37;;;;;;;3.53;87.87;99179.84;5015019;28;20624;-78
2021/12/04 08:21:35;;;;;;;6.13;5.70;;;;;;;3.57;86.97;99199.56;5014933;28;20207;-76
2021/12/04 08:24:06;;;;;;;6.27;5.87;;;;;;;3.52;86.80;99209.94;5015090;28;20697;-77
2021/12/04 08:26:32;;;;;;;6.30;5.80;;;;;;;3.53;87.26;99197.91;5014629;28;20258;-77
2021/12/04 08:28:58;;;;;;;6.03;5.53;;;;;;;3.42;88.06;99187.69;5015225;28;20204;-77
2021/12/04 08:31:25;;;;;;;6.17;5.70;;;;;;;3.27;88.23;99165.50;5014945;28;20194;-78
2021/12/04 08:33:51;;;;;;;6.27;5.77;;;;;;;3.26;88.45;99150.03;5014985;28;20270;-78
2021/12/04 08:36:18;;;;;;;6.13;5.63;;;;;;;3.37;88.58;99149.03;5015100;28;20224;-76
2021/12/04 08:38:47;;;;;;;6.07;5.57;;;;;;;3.45;89.00;99140.34;5015435;28;20211;-77
2021/12/04 08:41:16;;;;;;;6.23;5.80;;;;;;;3.43;88.91;99142.97;5014586;28;20207;-78
2021/12/04 08:43:43;;;;;;;6.77;6.27;;;;;;;3.32;89.21;99126.75;5011699;28;20261;-77
2021/12/04 08:46:10;;;;;;;7.60;7.00;;;;;;;3.40;89.73;99114.63;5013634;28;20273;-77
2021/12/04 08:48:36;;;;;;;7.33;6.60;;;;;;;3.18;89.77;99104.53;5015017;28;20211;-78
2021/12/04 08:51:04;;;;;;;6.50;6.07;;;;;;;3.13;90.82;99077.09;5015014;28;20203;-76
2021/12/04 08:53:30;;;;;;;6.97;6.37;;;;;;;2.94;91.05;99058.41;5014835;28;20257;-77
2021/12/04 08:55:57;;;;;;;8.03;7.43;;;;;;;2.94;91.83;99030.06;5015003;28;20265;-77
2021/12/04 08:58:25;;;;;;;9.77;9.00;;;;;;;3.15;93.88;98988.56;5014968;28;20236;-77
2021/12/04 09:00:54;;;;;;;8.97;8.27;;;;;;;3.55;95.89;98891.75;5015081;28;20268;-77
2021/12/04 09:03:25;;;;;;;7.73;7.23;;;;;;;3.71;94.99;98910.41;5014498;28;20211;-77
2021/12/04 09:05:52;;;;;;;7.03;6.50;;;;;;;3.84;93.50;98957.50;5014930;28;20257;-77
2021/12/04 09:08:21;;;;;;;6.73;6.23;;;;;;;4.17;95.86;98907.06;5014643;28;20675;-77
2021/12/04 09:10:49;;;;;;;7.20;6.70;;;;;;;4.40;95.65;98891.16;5014706;28;20207;-78
2021/12/04 09:13:16;;;;;;;7.37;6.77;;;;;;;4.47;93.81;98948.72;5014697;28;20247;-77
2021/12/04 09:15:47;;;;;;;7.47;6.87;;;;;;;4.26;90.46;99028.28;5014709;28;20207;-75
2021/12/04 09:18:13;;;;;;;6.87;6.47;;;;;;;4.29;90.14;99074.72;5014636;28;20212;-77
2021/12/04 09:20:41;;;;;;;6.53;6.13;;;;;;;4.38;90.43;99066.81;5014515;28;20270;-77
2021/12/04 09:23:14;;;;;;;7.57;6.90;;;;;;;4.51;91.98;99039.03;5014302;28;20207;-76
2021/12/04 09:25:44;;;;;;;7.37;6.77;;;;;;;4.55;91.25;99026.94;5014369;28;20687;-77
2021/12/04 09:28:18;;;;;;;8.27;7.67;;;;;;;4.57;89.31;99069.94;5013534;28;20213;-77
2021/12/04 09:31:08;;;;;;;7.33;6.73;;;;;;;4.43;89.48;99109.81;5014312;28;20209;-77
2021/12/04 10:01:32;;;;;;;7.97;7.33;;;;;;;4.29;87.17;99152.19;5012265;28;20263;-78
2021/12/04 10:12:50;;;;;;;8.63;7.87;;;;;;;4.30;87.84;99130.69;4972691;28;20362;-79
2021/12/04 10:15:43;;;;;;;8.23;7.53;;;;;;;4.22;87.04;99154.88;5011285;28;20263;-78
2021/12/04 10:21:09;;;;;;;7.47;6.87;;;;;;;4.30;86.19;99176.28;5013492;28;20212;-77
2021/12/04 10:23:55;;;;;;;7.67;7.00;;;;;;;4.40;86.89;99153.78;5013134;28;20208;-78
2021/12/04 10:34:39;;;;;;;6.37;5.90;;;;;;;4.48;86.32;99154.50;5002291;28;20234;-78
2021/12/04 10:37:08;;;;;;;6.70;6.17;;;;;;;4.57;85.83;99155.22;5012084;28;20269;-77
2021/12/04 10:39:35;;;;;;;7.07;6.47;;;;;;;4.68;85.75;99165.41;5011131;28;20643;-78
2021/12/04 10:42:04;;;;;;;6.73;6.13;;;;;;;4.66;85.19;99192.13;5011745;28;20666;-74
2021/12/04 10:44:31;;;;;;;6.80;6.30;;;;;;;4.67;85.91;99174.03;5011977;28;20227;-78
2021/12/04 10:47:02;;;;;;;7.17;6.67;;;;;;;4.75;85.32;99179.09;5010623;28;20232;-77
2021/12/04 10:49:37;;;;;;;6.27;5.77;;;;;;;4.51;83.90;99224.25;5013029;28;20213;-77
2021/12/04 10:52:05;;;;;;;6.67;6.07;;;;;;;4.63;84.72;99193.03;5010593;28;20213;-77
2021/12/04 10:54:39;;;;;;;5.67;5.27;;;;;;;4.71;84.67;99187.75;5011932;28;20212;-77
2021/12/04 10:57:52;;;;;;;5.70;5.30;;;;;;;4.84;84.11;99199.63;5012034;28;20223;-78
2021/12/04 11:00:32;;;;;;;5.90;5.40;;;;;;;4.93;83.96;99196.88;5011915;28;20203;-77
2021/12/04 11:03:03;;;;;;;5.90;5.40;;;;;;;4.97;83.22;99210.63;5010399;28;20235;-77
2021/12/04 11:06:05;;;;;;;5.63;5.23;;;;;;;5.05;83.11;99213.09;5009384;28;20236;-78
2021/12/04 11:20:10;;;;;;;4.03;3.73;;;;;;;4.98;82.25;99251.13;4992302;28;20204;-77
2021/12/04 11:22:50;;;;;;;4.43;4.03;;;;;;;5.12;81.38;99254.34;4991945;28;20215;-77
2021/12/04 11:25:37;;;;;;;3.97;3.67;;;;;;;5.15;81.46;99254.31;4992631;28;20226;-77
2021/12/04 11:36:30;;;;;;;3.30;3.10;;;;;;;5.05;79.66;99309.63;5010638;28;20594;-77
2021/12/04 11:39:09;;;;;;;2.97;2.77;;;;;;;4.97;81.07;99276.16;5011340;28;20638;-77
2021/12/04 11:41:38;;;;;;;3.37;3.17;;;;;;;4.85;79.90;99296.13;5011393;28;20733;-78
2021/12/04 11:44:10;;;;;;;3.20;2.90;;;;;;;4.91;81.08;99247.75;5011780;28;20303;-77
2021/12/04 11:46:44;;;;;;;2.90;2.70;;;;;;;5.00;80.51;99254.53;5011501;28;20320;-76
2021/12/04 11:49:19;;;;;;;2.30;2.20;;;;;;;5.15;80.71;99243.97;5012014;28;20201;-77
2021/12/04 11:51:55;;;;;;;2.63;2.43;;;;;;;5.24;79.63;99253.28;5010184;28;20262;-76
2021/12/04 11:54:22;;;;;;;2.00;1.90;;;;;;;5.28;79.34;99279.97;5011276;28;20196;-78
2021/12/04 11:57:02;;;;;;;2.30;2.15;;;;;;;5.21;78.54;99311.97;4318801;28;10021565;-75
2021/12/04 11:59:31;;;;;;;2.20;2.10;;;;;;;5.26;78.54;99308.44;5000745;28;20260;-77
2021/12/04 12:02:00;;;;;;;1.83;1.73;;;;;;;5.35;78.56;99299.69;5008305;28;20224;-78
2021/12/04 12:04:36;;;;;;;2.13;2.03;;;;;;;5.46;78.55;99291.75;5007730;28;20234;-76
2021/12/04 12:07:12;;;;;;;2.10;1.90;;;;;;;5.51;78.98;99295.97;5007843;28;20638;-76
2021/12/04 12:09:40;;;;;;;2.13;2.03;;;;;;;5.53;78.75;99291.63;5008755;28;20213;-77
2021/12/04 12:12:12;;;;;;;2.40;2.30;;;;;;;5.45;78.33;99296.09;5008248;28;20300;-78
2021/12/04 12:14:46;;;;;;;2.70;2.50;;;;;;;5.47;79.36;99278.81;5008758;28;20288;-77
2021/12/04 12:17:14;;;;;;;3.17;2.90;;;;;;;5.51;78.82;99277.00;5008777;28;20283;-77
2021/12/04 12:19:51;;;;;;;2.67;2.47;;;;;;;5.51;78.75;99267.50;5008705;28;20219;-78
2021/12/04 12:22:33;;;;;;;3.67;3.40;;;;;;;5.46;79.03;99263.28;5007087;28;20646;-77
2021/12/04 12:25:16;;;;;;;3.03;2.83;;;;;;;5.45;78.49;99257.28;5008669;28;20933;-76
2021/12/04 12:33:22;;;;;;;2.97;2.73;;;;;;;5.55;77.31;99281.25;5008026;28;20216;-78
2021/12/04 12:36:04;;;;;;;2.70;2.43;;;;;;;5.49;78.26;99270.97;5008416;28;20213;-77
2021/12/04 12:38:47;;;;;;;2.80;2.20;;;;;;;5.50;77.75;99276.13;4988651;28;20248;-77
2021/12/04 12:41:21;;;;;;;2.23;2.10;;;;;;;5.45;77.64;99277.97;4989008;28;20655;-76
2021/12/04 12:43:59;;;;;;;2.20;2.10;;;;;;;5.51;77.97;99267.50;4988781;28;20215;-77
2021/12/04 12:46:36;;;;;;;2.67;2.47;;;;;;;5.55;77.72;99279.53;4988517;28;20333;-77
2021/12/04 12:49:04;;;;;;;3.03;2.33;;;;;;;5.61;77.59;99268.22;4988669;28;20233;-76
2021/12/04 12:51:36;;;;;;;2.50;2.40;;;;;;;5.74;77.64;99277.44;4988888;28;20206;-78
2021/12/04 12:54:06;;;;;;;3.13;2.93;;;;;;;5.67;77.35;99275.88;4988968;28;20262;-78
2021/12/04 12:56:35;;;;;;;3.03;2.83;;;;;;;5.56;76.77;99299.31;4988758;28;20647;-78
2021/12/04 12:59:05;;;;;;;3.10;2.80;;;;;;;5.35;77.27;99295.38;5008195;28;20216;-77
2021/12/04 13:13:27;;;;;;;3.43;3.17;;;;;;;5.20;79.03;99199.06;5011733;28;20213;-78
2021/12/04 13:16:00;;;;;;;2.83;2.63;;;;;;;5.20;79.34;99199.06;5012116;28;20259;-79
2021/12/04 13:18:30;;;;;;;2.93;2.73;;;;;;;5.18;79.05;99186.16;5012159;28;20213;-78
2021/12/04 13:21:01;;;;;;;3.00;2.80;;;;;;;5.23;79.65;99168.78;5012023;28;20271;-79
2021/12/04 13:23:28;;;;;;;3.17;2.97;;;;;;;5.24;79.41;99152.41;5011429;28;20206;-79
2021/12/04 13:25:58;;;;;;;4.57;4.17;;;;;;;5.29;78.90;99154.91;5011421;28;20237;-78
2021/12/04 13:28:27;;;;;;;3.10;2.90;;;;;;;5.25;78.93;99161.00;5011839;28;20216;-78
2021/12/04 13:30:54;;;;;;;3.53;3.33;;;;;;;5.19;78.99;99156.78;5013623;28;20210;-78
2021/12/04 13:33:20;;;;;;;4.27;3.80;;;;;;;5.20;78.22;99150.75;5011286;28;20268;-78
2021/12/04 13:35:48;;;;;;;3.30;3.10;;;;;;;5.18;79.01;99143.00;5011139;28;20208;-78
2021/12/04 13:38:16;;;;;;;3.77;3.47;;;;;;;5.21;78.78;99141.25;5011073;28;20218;-79
2021/12/04 13:40:48;;;;;;;3.33;3.13;;;;;;;5.15;79.23;99126.69;5011740;28;20210;-79
2021/12/04 13:43:16;;;;;;;3.60;3.30;;;;;;;5.16;79.68;99113.72;5013840;28;20618;-76
2021/12/04 13:45:43;;;;;;;4.20;3.80;;;;;;;5.16;79.39;99105.97;5025537;28;20229;-76
2021/12/04 13:48:09;;;;;;;3.67;3.40;;;;;;;5.09;79.52;99103.53;5028014;28;20206;-76
2021/12/04 13:50:47;;;;;;;3.10;2.90;;;;;;;5.08;79.45;99101.84;5027485;28;20214;-76
2021/12/04 13:53:19;;;;;;;3.27;3.07;;;;;;;5.07;79.63;99089.78;5015293;28;20223;-77
2021/12/04 13:55:49;;;;;;;3.60;3.30;;;;;;;5.10;79.22;99097.50;5011673;28;20194;-77
2021/12/04 13:58:16;;;;;;;3.30;3.10;;;;;;;5.10;79.51;99102.66;5010948;28;20266;-78
2021/12/04 14:00:44;;;;;;;34.60;20.03;;;;;;;5.08;79.97;99096.66;5011001;28;20235;-78
2021/12/04 14:03:10;;;;;;;6.40;5.63;;;;;;;5.09;80.34;99083.69;5010804;28;20217;-77
2021/12/04 14:05:37;;;;;;;3.40;3.20;;;;;;;5.13;80.54;99093.13;5010609;28;20314;-78